Terminal Aerodrome Forecast
Issued by NWS Cleveland, OH

Home | Current Version | Previous Version | Text Only | Print | Product List | Glossary On
Versions: 1 2 3 4 5 6 7 8 9 10 11 12 13 14 15 16 17 18 19 20 21 22
000
FTUS41 KCLE 211732
TAFCLE
TAF
KCLE 211732Z 2118/2224 25004KT P6SM FEW060 SCT200
     FM211900 23005KT P6SM VCTS SCT050CB BKN200
      TEMPO 2120/2122 3SM TSRA BKN040CB
     FM220200 21006KT P6SM BKN200
     FM220900 20009KT P6SM BKN070
     FM221700 23016G24KT P6SM VCTS BKN050CB
     FM222200 26014G22KT P6SM BKN035=

USA.gov is the U.S. government's official web portal to all federal, state and local government web resources and services.